sensor_id;sensor_type;location;lat;lon;timestamp;temperature;humidity
58363;DHT22;54977;51.510;7.522;2022-12-07T00:02:57;6.20;86.70
58363;DHT22;54977;51.510;7.522;2022-12-07T00:07:59;6.30;86.40
58363;DHT22;54977;51.510;7.522;2022-12-07T00:13:01;6.10;87.00
58363;DHT22;54977;51.510;7.522;2022-12-07T00:18:04;6.20;86.70
58363;DHT22;54977;51.510;7.522;2022-12-07T00:23:06;6.40;86.40
58363;DHT22;54977;51.510;7.522;2022-12-07T00:28:08;6.30;86.60
58363;DHT22;54977;51.510;7.522;2022-12-07T00:33:12;6.30;86.70
58363;DHT22;54977;51.510;7.522;2022-12-07T00:38:14;6.30;86.40
58363;DHT22;54977;51.510;7.522;2022-12-07T00:43:16;6.30;86.40
58363;DHT22;54977;51.510;7.522;2022-12-07T00:48:19;6.40;86.20
58363;DHT22;54977;51.510;7.522;2022-12-07T00:53:21;6.30;86.60
58363;DHT22;54977;51.510;7.522;2022-12-07T00:58:23;6.30;86.70
58363;DHT22;54977;51.510;7.522;2022-12-07T01:03:27;6.30;86.20
58363;DHT22;54977;51.510;7.522;2022-12-07T01:08:29;6.30;86.50
58363;DHT22;54977;51.510;7.522;2022-12-07T01:13:31;6.40;86.30
58363;DHT22;54977;51.510;7.522;2022-12-07T01:18:36;6.40;86.20
58363;DHT22;54977;51.510;7.522;2022-12-07T01:23:38;6.30;86.30
58363;DHT22;54977;51.510;7.522;2022-12-07T01:28:40;6.30;86.30
58363;DHT22;54977;51.510;7.522;2022-12-07T01:33:46;6.30;86.60
58363;DHT22;54977;51.510;7.522;2022-12-07T01:38:50;6.40;86.00
58363;DHT22;54977;51.510;7.522;2022-12-07T01:44:14;6.40;85.70
58363;DHT22;54977;51.510;7.522;2022-12-07T01:49:22;6.30;86.10
58363;DHT22;54977;51.510;7.522;2022-12-07T01:54:25;6.40;85.60
58363;DHT22;54977;51.510;7.522;2022-12-07T01:59:27;6.30;86.10
58363;DHT22;54977;51.510;7.522;2022-12-07T02:04:30;6.30;86.20
58363;DHT22;54977;51.510;7.522;2022-12-07T02:09:32;6.30;86.30
58363;DHT22;54977;51.510;7.522;2022-12-07T02:14:34;6.30;86.40
58363;DHT22;54977;51.510;7.522;2022-12-07T02:25:06;6.20;86.60
58363;DHT22;54977;51.510;7.522;2022-12-07T02:30:13;6.30;85.80
58363;DHT22;54977;51.510;7.522;2022-12-07T02:35:18;6.30;85.90
58363;DHT22;54977;51.510;7.522;2022-12-07T02:40:31;6.30;86.00
58363;DHT22;54977;51.510;7.522;2022-12-07T02:45:35;6.20;86.10
58363;DHT22;54977;51.510;7.522;2022-12-07T02:50:37;6.20;86.80
58363;DHT22;54977;51.510;7.522;2022-12-07T02:55:42;6.30;85.50
58363;DHT22;54977;51.510;7.522;2022-12-07T03:00:54;6.30;85.40
58363;DHT22;54977;51.510;7.522;2022-12-07T03:06:06;6.30;85.70
58363;DHT22;54977;51.510;7.522;2022-12-07T03:11:13;6.20;85.40
58363;DHT22;54977;51.510;7.522;2022-12-07T03:16:19;6.20;85.40
58363;DHT22;54977;51.510;7.522;2022-12-07T03:21:25;6.10;85.00
58363;DHT22;54977;51.510;7.522;2022-12-07T03:26:31;6.00;85.30
58363;DHT22;54977;51.510;7.522;2022-12-07T03:31:37;5.80;85.90
58363;DHT22;54977;51.510;7.522;2022-12-07T03:36:46;5.80;85.90
58363;DHT22;54977;51.510;7.522;2022-12-07T03:41:49;5.70;86.00
58363;DHT22;54977;51.510;7.522;2022-12-07T03:47:01;5.60;86.30
58363;DHT22;54977;51.510;7.522;2022-12-07T03:52:11;5.60;85.90
58363;DHT22;54977;51.510;7.522;2022-12-07T03:57:14;5.50;85.80
58363;DHT22;54977;51.510;7.522;2022-12-07T04:02:18;5.50;85.90
58363;DHT22;54977;51.510;7.522;2022-12-07T04:07:21;5.30;85.90
58363;DHT22;54977;51.510;7.522;2022-12-07T04:12:23;5.20;86.20
58363;DHT22;54977;51.510;7.522;2022-12-07T04:17:27;5.10;86.60
58363;DHT22;54977;51.510;7.522;2022-12-07T04:22:29;5.10;87.00
58363;DHT22;54977;51.510;7.522;2022-12-07T04:27:30;5.20;87.00
58363;DHT22;54977;51.510;7.522;2022-12-07T04:32:34;5.20;86.90
58363;DHT22;54977;51.510;7.522;2022-12-07T04:37:36;5.30;86.80
58363;DHT22;54977;51.510;7.522;2022-12-07T04:42:39;5.20;86.80
58363;DHT22;54977;51.510;7.522;2022-12-07T04:47:42;5.30;86.20
58363;DHT22;54977;51.510;7.522;2022-12-07T04:52:44;5.40;86.10
58363;DHT22;54977;51.510;7.522;2022-12-07T04:57:46;5.30;86.10
58363;DHT22;54977;51.510;7.522;2022-12-07T05:02:49;5.20;86.50
58363;DHT22;54977;51.510;7.522;2022-12-07T05:07:51;5.20;86.90
58363;DHT22;54977;51.510;7.522;2022-12-07T05:12:53;5.40;86.10
58363;DHT22;54977;51.510;7.522;2022-12-07T05:17:56;5.30;86.40
58363;DHT22;54977;51.510;7.522;2022-12-07T05:22:58;5.30;86.50
58363;DHT22;54977;51.510;7.522;2022-12-07T05:28:00;5.20;86.50
58363;DHT22;54977;51.510;7.522;2022-12-07T05:33:03;5.20;86.40
58363;DHT22;54977;51.510;7.522;2022-12-07T05:38:05;5.20;86.20
58363;DHT22;54977;51.510;7.522;2022-12-07T05:43:07;5.10;86.10
58363;DHT22;54977;51.510;7.522;2022-12-07T05:48:10;5.20;85.70
58363;DHT22;54977;51.510;7.522;2022-12-07T05:53:12;5.10;86.00
58363;DHT22;54977;51.510;7.522;2022-12-07T05:58:14;5.00;86.80
58363;DHT22;54977;51.510;7.522;2022-12-07T06:03:35;5.00;86.80
58363;DHT22;54977;51.510;7.522;2022-12-07T06:08:37;5.10;87.20
58363;DHT22;54977;51.510;7.522;2022-12-07T06:13:38;5.20;86.50
58363;DHT22;54977;51.510;7.522;2022-12-07T06:18:42;5.20;86.20
58363;DHT22;54977;51.510;7.522;2022-12-07T06:23:44;5.10;86.30
58363;DHT22;54977;51.510;7.522;2022-12-07T06:28:45;5.10;86.40
58363;DHT22;54977;51.510;7.522;2022-12-07T06:33:49;5.20;86.40
58363;DHT22;54977;51.510;7.522;2022-12-07T06:38:51;5.20;86.40
58363;DHT22;54977;51.510;7.522;2022-12-07T06:43:53;5.30;85.60
58363;DHT22;54977;51.510;7.522;2022-12-07T06:48:56;5.20;86.00
58363;DHT22;54977;51.510;7.522;2022-12-07T06:53:58;5.20;86.10
58363;DHT22;54977;51.510;7.522;2022-12-07T06:59:00;5.10;86.30
58363;DHT22;54977;51.510;7.522;2022-12-07T07:04:04;5.20;86.00
58363;DHT22;54977;51.510;7.522;2022-12-07T07:09:06;5.10;85.90
58363;DHT22;54977;51.510;7.522;2022-12-07T07:14:09;5.10;85.80
58363;DHT22;54977;51.510;7.522;2022-12-07T07:19:13;5.00;85.50
58363;DHT22;54977;51.510;7.522;2022-12-07T07:24:15;5.00;85.80
58363;DHT22;54977;51.510;7.522;2022-12-07T07:29:17;5.00;85.80
58363;DHT22;54977;51.510;7.522;2022-12-07T07:34:20;5.00;85.80
58363;DHT22;54977;51.510;7.522;2022-12-07T07:39:22;5.00;85.70
58363;DHT22;54977;51.510;7.522;2022-12-07T07:44:24;5.00;86.10
58363;DHT22;54977;51.510;7.522;2022-12-07T07:49:27;4.90;85.60
58363;DHT22;54977;51.510;7.522;2022-12-07T07:54:29;4.90;85.60
58363;DHT22;54977;51.510;7.522;2022-12-07T07:59:31;5.00;85.40
58363;DHT22;54977;51.510;7.522;2022-12-07T08:04:36;4.90;85.50
58363;DHT22;54977;51.510;7.522;2022-12-07T08:09:37;4.80;85.50
58363;DHT22;54977;51.510;7.522;2022-12-07T08:14:39;4.90;85.60
58363;DHT22;54977;51.510;7.522;2022-12-07T08:19:43;4.90;85.90
58363;DHT22;54977;51.510;7.522;2022-12-07T08:24:45;5.00;85.80
58363;DHT22;54977;51.510;7.522;2022-12-07T08:29:46;5.20;84.80
58363;DHT22;54977;51.510;7.522;2022-12-07T08:34:52;5.40;84.10
58363;DHT22;54977;51.510;7.522;2022-12-07T08:39:54;5.40;83.70
58363;DHT22;54977;51.510;7.522;2022-12-07T08:44:56;5.50;83.10
58363;DHT22;54977;51.510;7.522;2022-12-07T08:50:00;5.70;83.20
58363;DHT22;54977;51.510;7.522;2022-12-07T08:55:05;5.90;83.00
58363;DHT22;54977;51.510;7.522;2022-12-07T09:00:09;6.10;82.10
58363;DHT22;54977;51.510;7.522;2022-12-07T09:05:13;6.20;81.40
58363;DHT22;54977;51.510;7.522;2022-12-07T09:10:17;6.40;80.80
58363;DHT22;54977;51.510;7.522;2022-12-07T09:15:19;6.30;81.10
58363;DHT22;54977;51.510;7.522;2022-12-07T09:20:23;6.30;81.00
58363;DHT22;54977;51.510;7.522;2022-12-07T10:21:19;6.20;80.90
58363;DHT22;54977;51.510;7.522;2022-12-07T10:26:30;7.20;77.60
58363;DHT22;54977;51.510;7.522;2022-12-07T10:31:32;7.20;77.60
58363;DHT22;54977;51.510;7.522;2022-12-07T10:36:38;7.10;77.70
58363;DHT22;54977;51.510;7.522;2022-12-07T10:52:30;7.00;77.20
58363;DHT22;54977;51.510;7.522;2022-12-07T10:57:45;7.10;77.20
58363;DHT22;54977;51.510;7.522;2022-12-07T11:08:37;7.70;76.70
58363;DHT22;54977;51.510;7.522;2022-12-07T11:13:47;7.60;76.70
58363;DHT22;54977;51.510;7.522;2022-12-07T11:19:07;7.70;76.10
58363;DHT22;54977;51.510;7.522;2022-12-07T11:24:17;7.40;76.10
58363;DHT22;54977;51.510;7.522;2022-12-07T11:29:46;7.40;76.00
58363;DHT22;54977;51.510;7.522;2022-12-07T11:34:59;7.50;76.30
58363;DHT22;54977;51.510;7.522;2022-12-07T11:40:15;7.60;76.30
58363;DHT22;54977;51.510;7.522;2022-12-07T11:45:22;7.70;75.70
58363;DHT22;54977;51.510;7.522;2022-12-07T11:50:29;7.60;76.00
58363;DHT22;54977;51.510;7.522;2022-12-07T11:55:42;7.70;75.50
58363;DHT22;54977;51.510;7.522;2022-12-07T12:00:45;7.80;75.50
58363;DHT22;54977;51.510;7.522;2022-12-07T12:05:47;7.70;75.50
58363;DHT22;54977;51.510;7.522;2022-12-07T12:10:56;7.70;75.40
58363;DHT22;54977;51.510;7.522;2022-12-07T12:16:10;7.80;74.10
58363;DHT22;54977;51.510;7.522;2022-12-07T12:21:16;7.70;74.70
58363;DHT22;54977;51.510;7.522;2022-12-07T12:26:21;7.80;73.80
58363;DHT22;54977;51.510;7.522;2022-12-07T12:31:33;7.70;74.00
58363;DHT22;54977;51.510;7.522;2022-12-07T12:36:46;7.70;73.80
58363;DHT22;54977;51.510;7.522;2022-12-07T12:41:58;7.70;73.90
58363;DHT22;54977;51.510;7.522;2022-12-07T12:47:40;7.60;74.40
58363;DHT22;54977;51.510;7.522;2022-12-07T12:53:01;7.60;73.30
58363;DHT22;54977;51.510;7.522;2022-12-07T13:03:35;7.60;73.50
58363;DHT22;54977;51.510;7.522;2022-12-07T13:08:40;7.60;73.70
58363;DHT22;54977;51.510;7.522;2022-12-07T13:13:43;7.60;73.90
58363;DHT22;54977;51.510;7.522;2022-12-07T13:18:46;7.70;72.70
58363;DHT22;54977;51.510;7.522;2022-12-07T13:23:55;7.40;73.40
58363;DHT22;54977;51.510;7.522;2022-12-07T13:29:07;7.50;73.30
58363;DHT22;54977;51.510;7.522;2022-12-07T13:34:30;7.50;73.50
58363;DHT22;54977;51.510;7.522;2022-12-07T13:39:33;7.50;72.80
58363;DHT22;54977;51.510;7.522;2022-12-07T13:44:40;7.30;73.60
58363;DHT22;54977;51.510;7.522;2022-12-07T13:49:52;7.50;72.90
58363;DHT22;54977;51.510;7.522;2022-12-07T13:54:55;7.30;73.60
58363;DHT22;54977;51.510;7.522;2022-12-07T14:00:00;7.20;73.80
58363;DHT22;54977;51.510;7.522;2022-12-07T14:05:14;7.20;73.70
58363;DHT22;54977;51.510;7.522;2022-12-07T14:10:24;7.20;73.80
58363;DHT22;54977;51.510;7.522;2022-12-07T14:15:28;7.10;73.80
58363;DHT22;54977;51.510;7.522;2022-12-07T14:20:34;7.10;74.20
58363;DHT22;54977;51.510;7.522;2022-12-07T14:25:45;7.00;75.30
58363;DHT22;54977;51.510;7.522;2022-12-07T14:30:47;7.10;75.40
58363;DHT22;54977;51.510;7.522;2022-12-07T14:41:01;6.90;74.90
58363;DHT22;54977;51.510;7.522;2022-12-07T14:46:17;6.90;74.80
58363;DHT22;54977;51.510;7.522;2022-12-07T15:11:30;6.90;74.50
58363;DHT22;54977;51.510;7.522;2022-12-07T15:16:32;6.00;75.70
58363;DHT22;54977;51.510;7.522;2022-12-07T15:21:34;5.80;76.10
58363;DHT22;54977;51.510;7.522;2022-12-07T15:26:38;5.70;76.60
58363;DHT22;54977;51.510;7.522;2022-12-07T15:31:40;5.50;77.60
58363;DHT22;54977;51.510;7.522;2022-12-07T15:36:42;5.50;77.90
58363;DHT22;54977;51.510;7.522;2022-12-07T15:41:45;5.40;78.20
58363;DHT22;54977;51.510;7.522;2022-12-07T15:46:47;5.30;78.80
58363;DHT22;54977;51.510;7.522;2022-12-07T15:51:49;5.00;79.60
58363;DHT22;54977;51.510;7.522;2022-12-07T15:56:53;5.00;79.90
58363;DHT22;54977;51.510;7.522;2022-12-07T16:01:55;4.90;80.20
58363;DHT22;54977;51.510;7.522;2022-12-07T16:06:57;5.00;80.90
58363;DHT22;54977;51.510;7.522;2022-12-07T16:12:00;4.90;81.10
58363;DHT22;54977;51.510;7.522;2022-12-07T16:17:02;4.80;81.10
58363;DHT22;54977;51.510;7.522;2022-12-07T16:22:05;4.80;81.50
58363;DHT22;54977;51.510;7.522;2022-12-07T16:27:08;4.70;81.90
58363;DHT22;54977;51.510;7.522;2022-12-07T16:32:10;4.80;82.30
58363;DHT22;54977;51.510;7.522;2022-12-07T16:37:12;4.80;82.60
58363;DHT22;54977;51.510;7.522;2022-12-07T16:42:15;4.90;82.90
58363;DHT22;54977;51.510;7.522;2022-12-07T16:47:17;4.90;82.80
58363;DHT22;54977;51.510;7.522;2022-12-07T16:52:19;5.00;82.90
58363;DHT22;54977;51.510;7.522;2022-12-07T16:57:22;5.10;82.80
58363;DHT22;54977;51.510;7.522;2022-12-07T17:02:24;5.10;83.10
58363;DHT22;54977;51.510;7.522;2022-12-07T17:07:26;5.10;83.00
58363;DHT22;54977;51.510;7.522;2022-12-07T17:12:29;5.20;82.90
58363;DHT22;54977;51.510;7.522;2022-12-07T17:17:31;5.20;82.70
58363;DHT22;54977;51.510;7.522;2022-12-07T17:22:33;5.30;82.60
58363;DHT22;54977;51.510;7.522;2022-12-07T17:27:36;5.30;82.70
58363;DHT22;54977;51.510;7.522;2022-12-07T17:32:38;5.20;82.90
58363;DHT22;54977;51.510;7.522;2022-12-07T17:37:40;5.30;82.80
58363;DHT22;54977;51.510;7.522;2022-12-07T17:42:43;5.30;82.80
58363;DHT22;54977;51.510;7.522;2022-12-07T17:47:47;5.30;83.10
58363;DHT22;54977;51.510;7.522;2022-12-07T17:52:51;5.40;82.70
58363;DHT22;54977;51.510;7.522;2022-12-07T17:58:12;5.50;82.70
58363;DHT22;54977;51.510;7.522;2022-12-07T18:03:14;5.60;82.10
58363;DHT22;54977;51.510;7.522;2022-12-07T18:08:16;5.60;82.00
58363;DHT22;54977;51.510;7.522;2022-12-07T18:13:19;5.60;81.90
58363;DHT22;54977;51.510;7.522;2022-12-07T18:18:36;5.80;81.30
58363;DHT22;54977;51.510;7.522;2022-12-07T18:23:38;5.70;81.20
58363;DHT22;54977;51.510;7.522;2022-12-07T18:28:42;5.70;80.10
58363;DHT22;54977;51.510;7.522;2022-12-07T18:33:45;5.60;79.20
58363;DHT22;54977;51.510;7.522;2022-12-07T18:38:47;5.50;79.00
58363;DHT22;54977;51.510;7.522;2022-12-07T18:43:51;5.30;79.80
58363;DHT22;54977;51.510;7.522;2022-12-07T18:48:53;5.30;79.90
58363;DHT22;54977;51.510;7.522;2022-12-07T18:53:56;5.20;80.20
58363;DHT22;54977;51.510;7.522;2022-12-07T18:59:03;5.30;80.20
58363;DHT22;54977;51.510;7.522;2022-12-07T19:04:23;5.30;80.10
58363;DHT22;54977;51.510;7.522;2022-12-07T19:09:25;5.30;80.40
58363;DHT22;54977;51.510;7.522;2022-12-07T19:14:29;5.20;80.60
58363;DHT22;54977;51.510;7.522;2022-12-07T19:19:33;5.10;81.10
58363;DHT22;54977;51.510;7.522;2022-12-07T19:24:36;5.10;81.60
58363;DHT22;54977;51.510;7.522;2022-12-07T19:29:39;5.20;81.80
58363;DHT22;54977;51.510;7.522;2022-12-07T19:34:42;5.10;82.30
58363;DHT22;54977;51.510;7.522;2022-12-07T19:39:46;5.20;82.70
58363;DHT22;54977;51.510;7.522;2022-12-07T19:44:52;5.20;83.10
58363;DHT22;54977;51.510;7.522;2022-12-07T19:49:54;5.20;83.10
58363;DHT22;54977;51.510;7.522;2022-12-07T19:54:56;5.40;82.80
58363;DHT22;54977;51.510;7.522;2022-12-07T20:00:00;5.30;82.90
58363;DHT22;54977;51.510;7.522;2022-12-07T20:05:02;5.40;82.90
58363;DHT22;54977;51.510;7.522;2022-12-07T20:10:06;5.20;83.00
58363;DHT22;54977;51.510;7.522;2022-12-07T20:15:09;5.20;83.00
58363;DHT22;54977;51.510;7.522;2022-12-07T20:20:11;5.10;83.90
58363;DHT22;54977;51.510;7.522;2022-12-07T20:25:13;5.10;84.00
58363;DHT22;54977;51.510;7.522;2022-12-07T20:30:18;5.00;84.50
58363;DHT22;54977;51.510;7.522;2022-12-07T20:35:20;5.10;84.60
58363;DHT22;54977;51.510;7.522;2022-12-07T20:40:22;5.00;85.00
58363;DHT22;54977;51.510;7.522;2022-12-07T20:45:25;5.00;85.20
58363;DHT22;54977;51.510;7.522;2022-12-07T20:50:27;4.90;85.60
58363;DHT22;54977;51.510;7.522;2022-12-07T20:55:29;5.00;85.40
58363;DHT22;54977;51.510;7.522;2022-12-07T21:00:34;4.90;85.60
58363;DHT22;54977;51.510;7.522;2022-12-07T21:05:36;5.00;85.70
58363;DHT22;54977;51.510;7.522;2022-12-07T21:10:38;5.00;85.70
58363;DHT22;54977;51.510;7.522;2022-12-07T21:15:41;4.90;86.10
58363;DHT22;54977;51.510;7.522;2022-12-07T21:20:43;4.90;86.30
58363;DHT22;54977;51.510;7.522;2022-12-07T21:25:45;4.90;86.20
58363;DHT22;54977;51.510;7.522;2022-12-07T21:30:48;4.90;86.10
58363;DHT22;54977;51.510;7.522;2022-12-07T21:56:13;5.00;86.10
58363;DHT22;54977;51.510;7.522;2022-12-07T22:01:16;4.90;86.90
58363;DHT22;54977;51.510;7.522;2022-12-07T22:06:21;5.10;86.10
58363;DHT22;54977;51.510;7.522;2022-12-07T22:11:24;5.10;85.60
58363;DHT22;54977;51.510;7.522;2022-12-07T22:16:26;5.10;85.50
58363;DHT22;54977;51.510;7.522;2022-12-07T22:21:32;5.00;85.50
58363;DHT22;54977;51.510;7.522;2022-12-07T22:26:34;5.00;85.80
58363;DHT22;54977;51.510;7.522;2022-12-07T22:31:36;5.10;85.30
58363;DHT22;54977;51.510;7.522;2022-12-07T22:36:41;5.10;85.10
58363;DHT22;54977;51.510;7.522;2022-12-07T22:41:43;5.00;85.30
58363;DHT22;54977;51.510;7.522;2022-12-07T22:46:45;5.00;85.30
58363;DHT22;54977;51.510;7.522;2022-12-07T22:51:48;5.10;85.00
58363;DHT22;54977;51.510;7.522;2022-12-07T22:56:50;4.90;85.60
58363;DHT22;54977;51.510;7.522;2022-12-07T23:01:52;5.00;85.70
58363;DHT22;54977;51.510;7.522;2022-12-07T23:06:57;5.00;85.40
58363;DHT22;54977;51.510;7.522;2022-12-07T23:11:59;5.10;85.10
58363;DHT22;54977;51.510;7.522;2022-12-07T23:17:19;5.00;85.30
58363;DHT22;54977;51.510;7.522;2022-12-07T23:22:22;4.90;85.30
58363;DHT22;54977;51.510;7.522;2022-12-07T23:27:25;5.00;84.90
58363;DHT22;54977;51.510;7.522;2022-12-07T23:32:26;5.00;85.30
58363;DHT22;54977;51.510;7.522;2022-12-07T23:37:30;5.00;84.90
58363;DHT22;54977;51.510;7.522;2022-12-07T23:42:31;4.90;85.10
58363;DHT22;54977;51.510;7.522;2022-12-07T23:47:33;4.90;85.20
58363;DHT22;54977;51.510;7.522;2022-12-07T23:52:37;4.80;85.30
58363;DHT22;54977;51.510;7.522;2022-12-07T23:57:38;4.90;85.20
